This is the latest recevied weather packets stored in our database for station/object F4ETJ-1. If no packets are shown the sender has not sent any weather packets the latest 10 day(s).
| Time | Temp. | Humidity | Pressure | Rain* | Wind** | Luminosity | Snow |
|---|---|---|---|---|---|---|---|
| 1777647544 | 23.89° C | 55% | 1017.3 hPa | 0 mm | - | - | - |
| 1777647184 | 23.89° C | 56% | 1017.4 hPa | 0 mm | - | - | - |
| 1777646823 | 24.44° C | 56% | 1017.3 hPa | 0 mm | - | - | - |
| 1777646463 | 25° C | 51% | 1017.4 hPa | 0 mm | - | - | - |
| 1777645022 | 24.44° C | 54% | 1017.6 hPa | 0 mm | - | - | - |
| 1777643581 | 24.44° C | 54% | 1017.8 hPa | 0 mm | - | - | - |
| 1777643220 | 24.44° C | 53% | 1017.8 hPa | 0 mm | - | - | - |
| 1777639618 | 23.89° C | 57% | 1018.2 hPa | 0 mm | - | - | - |
| 1777639256 | 23.89° C | 60% | 1018.1 hPa | 0 mm | - | - | - |
| 1777638535 | 23.89° C | 59% | 1018.2 hPa | 0 mm | - | - | - |
| 1777638175 | 23.33° C | 62% | 1018.2 hPa | 0 mm | - | - | - |
| 1777637816 | 22.78° C | 61% | 1018.3 hPa | 0 mm | - | - | - |
| 1777637095 | 22.78° C | 60% | 1018.4 hPa | 0 mm | - | - | - |
| 1777634932 | 21.67° C | 65% | 1018.7 hPa | 0 mm | - | - | - |
| 1777632458 | 21.11° C | 68% | 1018.9 hPa | 0 mm | - | - | - |
| 1777632046 | 21.11° C | 70% | 1019 hPa | 0 mm | - | - | - |
| 1777631686 | 21.11° C | 73% | 1019 hPa | 0 mm | - | - | - |
| 1777631325 | 20.56° C | 73% | 1019.1 hPa | 0 mm | - | - | - |
| 1777630965 | 20° C | 73% | 1019.2 hPa | 0 mm | - | - | - |
| 1777630605 | 20.56° C | 74% | 1019.3 hPa | 0 mm | - | - | - |
| 1777630244 | 20.56° C | 74% | 1019.4 hPa | 0 mm | - | - | - |
| 1777629884 | 21.11° C | 74% | 1019.3 hPa | 0 mm | - | - | - |
| 1777629526 | 20.56° C | 73% | 1019.3 hPa | 0 mm | - | - | - |
| 1777629163 | 21.11° C | 74% | 1019.3 hPa | 0 mm | - | - | - |
| 1777628802 | 20.56° C | 74% | 1019.3 hPa | 0 mm | - | - | - |
* Rain latest hour (hover to see other rain measurements)
** Current wind speed in m/s (hover to see current wind gust speed)